sensor_id;sensor_type;location;lat;lon;timestamp;P1;durP1;ratioP1;P2;durP2;ratioP2
44824;SDS011;30542;47.928;2.138;2023-10-08T00:02:47;6.15;;;4.13;;
44824;SDS011;30542;47.928;2.138;2023-10-08T00:07:47;7.72;;;5.22;;
44824;SDS011;30542;47.928;2.138;2023-10-08T00:12:48;5.73;;;4.07;;
44824;SDS011;30542;47.928;2.138;2023-10-08T00:17:50;6.50;;;4.43;;
44824;SDS011;30542;47.928;2.138;2023-10-08T00:22:53;6.88;;;3.97;;
44824;SDS011;30542;47.928;2.138;2023-10-08T00:27:56;6.18;;;4.60;;
44824;SDS011;30542;47.928;2.138;2023-10-08T00:32:56;5.47;;;3.60;;
44824;SDS011;30542;47.928;2.138;2023-10-08T00:37:57;5.23;;;3.70;;
44824;SDS011;30542;47.928;2.138;2023-10-08T00:43:00;5.22;;;3.72;;
44824;SDS011;30542;47.928;2.138;2023-10-08T00:48:04;4.45;;;3.30;;
44824;SDS011;30542;47.928;2.138;2023-10-08T00:53:06;4.88;;;3.50;;
44824;SDS011;30542;47.928;2.138;2023-10-08T00:58:17;4.57;;;3.35;;
44824;SDS011;30542;47.928;2.138;2023-10-08T01:03:23;8.25;;;3.88;;
44824;SDS011;30542;47.928;2.138;2023-10-08T01:08:27;4.70;;;3.40;;
44824;SDS011;30542;47.928;2.138;2023-10-08T01:13:36;4.53;;;3.55;;
44824;SDS011;30542;47.928;2.138;2023-10-08T01:18:44;3.88;;;3.47;;
44824;SDS011;30542;47.928;2.138;2023-10-08T01:23:50;3.22;;;2.92;;
44824;SDS011;30542;47.928;2.138;2023-10-08T01:28:50;5.30;;;3.20;;
44824;SDS011;30542;47.928;2.138;2023-10-08T01:33:52;3.97;;;3.55;;
44824;SDS011;30542;47.928;2.138;2023-10-08T01:38:56;4.00;;;2.95;;
44824;SDS011;30542;47.928;2.138;2023-10-08T01:43:58;5.15;;;3.10;;
44824;SDS011;30542;47.928;2.138;2023-10-08T01:48:59;4.13;;;3.15;;
44824;SDS011;30542;47.928;2.138;2023-10-08T01:54:13;4.97;;;3.42;;
44824;SDS011;30542;47.928;2.138;2023-10-08T01:59:14;4.22;;;3.08;;
44824;SDS011;30542;47.928;2.138;2023-10-08T02:04:15;4.13;;;2.85;;
44824;SDS011;30542;47.928;2.138;2023-10-08T02:09:17;4.78;;;2.92;;
44824;SDS011;30542;47.928;2.138;2023-10-08T02:14:19;5.25;;;2.92;;
44824;SDS011;30542;47.928;2.138;2023-10-08T02:19:22;3.83;;;2.80;;
44824;SDS011;30542;47.928;2.138;2023-10-08T02:24:30;4.47;;;2.72;;
44824;SDS011;30542;47.928;2.138;2023-10-08T02:29:30;3.85;;;2.78;;
44824;SDS011;30542;47.928;2.138;2023-10-08T02:34:30;2.93;;;2.40;;
44824;SDS011;30542;47.928;2.138;2023-10-08T02:39:31;4.55;;;2.92;;
44824;SDS011;30542;47.928;2.138;2023-10-08T02:44:32;3.60;;;2.50;;
44824;SDS011;30542;47.928;2.138;2023-10-08T02:49:32;2.55;;;2.20;;
44824;SDS011;30542;47.928;2.138;2023-10-08T02:54:35;2.60;;;2.20;;
44824;SDS011;30542;47.928;2.138;2023-10-08T02:59:38;2.92;;;2.00;;
44824;SDS011;30542;47.928;2.138;2023-10-08T03:04:42;2.45;;;2.22;;
44824;SDS011;30542;47.928;2.138;2023-10-08T03:09:46;2.25;;;2.05;;
44824;SDS011;30542;47.928;2.138;2023-10-08T03:14:49;3.40;;;2.22;;
44824;SDS011;30542;47.928;2.138;2023-10-08T03:20:01;2.92;;;2.05;;
44824;SDS011;30542;47.928;2.138;2023-10-08T03:25:20;2.67;;;1.95;;
44824;SDS011;30542;47.928;2.138;2023-10-08T03:30:20;2.53;;;2.33;;
44824;SDS011;30542;47.928;2.138;2023-10-08T03:35:21;1.67;;;1.58;;
44824;SDS011;30542;47.928;2.138;2023-10-08T03:40:27;2.40;;;2.20;;
44824;SDS011;30542;47.928;2.138;2023-10-08T03:45:43;3.10;;;2.20;;
44824;SDS011;30542;47.928;2.138;2023-10-08T03:50:59;3.13;;;2.05;;
44824;SDS011;30542;47.928;2.138;2023-10-08T03:56:06;3.00;;;2.20;;
44824;SDS011;30542;47.928;2.138;2023-10-08T04:01:06;2.50;;;1.73;;
44824;SDS011;30542;47.928;2.138;2023-10-08T04:06:11;1.67;;;1.40;;
44824;SDS011;30542;47.928;2.138;2023-10-08T04:11:22;2.38;;;1.70;;
44824;SDS011;30542;47.928;2.138;2023-10-08T04:16:32;1.95;;;1.40;;
44824;SDS011;30542;47.928;2.138;2023-10-08T04:21:37;1.60;;;1.40;;
44824;SDS011;30542;47.928;2.138;2023-10-08T04:26:37;2.03;;;1.65;;
44824;SDS011;30542;47.928;2.138;2023-10-08T04:31:40;3.40;;;1.77;;
44824;SDS011;30542;47.928;2.138;2023-10-08T04:36:46;1.88;;;1.70;;
44824;SDS011;30542;47.928;2.138;2023-10-08T04:41:53;1.83;;;1.52;;
44824;SDS011;30542;47.928;2.138;2023-10-08T04:46:55;2.28;;;1.63;;
44824;SDS011;30542;47.928;2.138;2023-10-08T04:51:56;2.22;;;1.40;;
44824;SDS011;30542;47.928;2.138;2023-10-08T04:57:05;1.77;;;1.45;;
44824;SDS011;30542;47.928;2.138;2023-10-08T05:02:15;2.28;;;1.70;;
44824;SDS011;30542;47.928;2.138;2023-10-08T05:07:33;2.30;;;1.70;;
44824;SDS011;30542;47.928;2.138;2023-10-08T05:12:46;1.70;;;1.45;;
44824;SDS011;30542;47.928;2.138;2023-10-08T05:18:04;3.10;;;1.52;;
44824;SDS011;30542;47.928;2.138;2023-10-08T05:23:23;2.35;;;1.52;;
44824;SDS011;30542;47.928;2.138;2023-10-08T05:28:24;2.20;;;1.73;;
44824;SDS011;30542;47.928;2.138;2023-10-08T05:33:25;1.48;;;1.33;;
44824;SDS011;30542;47.928;2.138;2023-10-08T05:38:28;1.90;;;1.27;;
44824;SDS011;30542;47.928;2.138;2023-10-08T05:43:30;2.50;;;1.35;;
44824;SDS011;30542;47.928;2.138;2023-10-08T05:48:38;1.90;;;1.20;;
44824;SDS011;30542;47.928;2.138;2023-10-08T05:53:45;2.47;;;1.23;;
44824;SDS011;30542;47.928;2.138;2023-10-08T05:58:50;1.75;;;1.35;;
44824;SDS011;30542;47.928;2.138;2023-10-08T06:04:03;1.42;;;1.13;;
44824;SDS011;30542;47.928;2.138;2023-10-08T06:09:21;1.53;;;1.20;;
44824;SDS011;30542;47.928;2.138;2023-10-08T06:14:21;1.38;;;1.10;;
44824;SDS011;30542;47.928;2.138;2023-10-08T06:19:40;2.25;;;1.48;;
44824;SDS011;30542;47.928;2.138;2023-10-08T06:24:41;1.23;;;1.03;;
44824;SDS011;30542;47.928;2.138;2023-10-08T06:29:41;1.00;;;0.90;;
44824;SDS011;30542;47.928;2.138;2023-10-08T06:34:44;1.52;;;1.25;;
44824;SDS011;30542;47.928;2.138;2023-10-08T06:39:45;1.30;;;1.20;;
44824;SDS011;30542;47.928;2.138;2023-10-08T06:44:47;4.35;;;1.13;;
44824;SDS011;30542;47.928;2.138;2023-10-08T06:49:48;3.10;;;1.17;;
44824;SDS011;30542;47.928;2.138;2023-10-08T06:54:49;1.30;;;1.20;;
44824;SDS011;30542;47.928;2.138;2023-10-08T06:59:49;1.50;;;1.10;;
44824;SDS011;30542;47.928;2.138;2023-10-08T07:04:50;1.55;;;1.40;;
44824;SDS011;30542;47.928;2.138;2023-10-08T07:09:51;2.60;;;1.35;;
44824;SDS011;30542;47.928;2.138;2023-10-08T07:14:57;1.70;;;1.20;;
44824;SDS011;30542;47.928;2.138;2023-10-08T07:19:58;1.85;;;1.05;;
44824;SDS011;30542;47.928;2.138;2023-10-08T07:24:59;3.97;;;1.33;;
44824;SDS011;30542;47.928;2.138;2023-10-08T07:29:59;2.00;;;1.13;;
44824;SDS011;30542;47.928;2.138;2023-10-08T07:35:02;2.58;;;1.55;;
44824;SDS011;30542;47.928;2.138;2023-10-08T07:40:23;1.98;;;1.05;;
44824;SDS011;30542;47.928;2.138;2023-10-08T07:45:29;3.33;;;1.35;;
44824;SDS011;30542;47.928;2.138;2023-10-08T07:50:29;3.15;;;1.00;;
44824;SDS011;30542;47.928;2.138;2023-10-08T07:55:30;2.55;;;1.20;;
44824;SDS011;30542;47.928;2.138;2023-10-08T08:00:34;5.10;;;1.95;;
44824;SDS011;30542;47.928;2.138;2023-10-08T08:05:38;4.15;;;1.55;;
44824;SDS011;30542;47.928;2.138;2023-10-08T08:10:40;5.05;;;2.45;;
44824;SDS011;30542;47.928;2.138;2023-10-08T08:15:43;6.38;;;3.85;;
44824;SDS011;30542;47.928;2.138;2023-10-08T08:20:50;5.78;;;3.95;;
44824;SDS011;30542;47.928;2.138;2023-10-08T08:25:51;6.95;;;3.33;;
44824;SDS011;30542;47.928;2.138;2023-10-08T08:31:11;6.70;;;3.05;;
44824;SDS011;30542;47.928;2.138;2023-10-08T08:36:14;4.88;;;3.00;;
44824;SDS011;30542;47.928;2.138;2023-10-08T08:41:14;5.27;;;2.80;;
44824;SDS011;30542;47.928;2.138;2023-10-08T08:46:18;5.57;;;2.22;;
44824;SDS011;30542;47.928;2.138;2023-10-08T08:51:18;4.87;;;2.57;;
44824;SDS011;30542;47.928;2.138;2023-10-08T08:56:20;6.07;;;2.75;;
44824;SDS011;30542;47.928;2.138;2023-10-08T09:01:22;5.78;;;2.40;;
44824;SDS011;30542;47.928;2.138;2023-10-08T09:06:23;7.07;;;2.70;;
44824;SDS011;30542;47.928;2.138;2023-10-08T09:11:25;6.38;;;2.53;;
44824;SDS011;30542;47.928;2.138;2023-10-08T09:16:26;5.15;;;2.95;;
44824;SDS011;30542;47.928;2.138;2023-10-08T09:21:27;4.28;;;2.50;;
44824;SDS011;30542;47.928;2.138;2023-10-08T09:26:27;6.97;;;2.53;;
44824;SDS011;30542;47.928;2.138;2023-10-08T09:31:29;8.32;;;2.65;;
44824;SDS011;30542;47.928;2.138;2023-10-08T09:36:35;5.47;;;1.98;;
44824;SDS011;30542;47.928;2.138;2023-10-08T09:41:36;4.32;;;1.92;;
44824;SDS011;30542;47.928;2.138;2023-10-08T09:46:41;3.65;;;1.60;;
44824;SDS011;30542;47.928;2.138;2023-10-08T09:51:43;6.68;;;1.80;;
44824;SDS011;30542;47.928;2.138;2023-10-08T09:56:45;6.03;;;1.95;;
44824;SDS011;30542;47.928;2.138;2023-10-08T10:01:45;5.55;;;1.88;;
44824;SDS011;30542;47.928;2.138;2023-10-08T10:06:47;4.50;;;1.63;;
44824;SDS011;30542;47.928;2.138;2023-10-08T10:11:48;3.37;;;2.20;;
44824;SDS011;30542;47.928;2.138;2023-10-08T10:17:09;2.33;;;1.55;;
44824;SDS011;30542;47.928;2.138;2023-10-08T10:22:14;5.47;;;2.80;;
44824;SDS011;30542;47.928;2.138;2023-10-08T10:27:28;6.20;;;2.63;;
44824;SDS011;30542;47.928;2.138;2023-10-08T10:32:29;6.63;;;2.17;;
44824;SDS011;30542;47.928;2.138;2023-10-08T10:37:29;4.68;;;1.83;;
44824;SDS011;30542;47.928;2.138;2023-10-08T10:42:40;5.25;;;2.30;;
44824;SDS011;30542;47.928;2.138;2023-10-08T10:47:44;5.70;;;2.47;;
44824;SDS011;30542;47.928;2.138;2023-10-08T10:52:45;5.28;;;2.00;;
44824;SDS011;30542;47.928;2.138;2023-10-08T10:57:53;4.20;;;2.10;;
44824;SDS011;30542;47.928;2.138;2023-10-08T11:03:04;4.95;;;1.65;;
44824;SDS011;30542;47.928;2.138;2023-10-08T11:08:18;6.65;;;2.25;;
44824;SDS011;30542;47.928;2.138;2023-10-08T11:13:20;4.53;;;2.30;;
44824;SDS011;30542;47.928;2.138;2023-10-08T11:18:22;3.38;;;1.65;;
44824;SDS011;30542;47.928;2.138;2023-10-08T11:23:33;3.78;;;1.90;;
44824;SDS011;30542;47.928;2.138;2023-10-08T11:28:41;5.43;;;1.60;;
44824;SDS011;30542;47.928;2.138;2023-10-08T11:33:42;5.53;;;2.30;;
44824;SDS011;30542;47.928;2.138;2023-10-08T11:38:54;5.95;;;1.77;;
44824;SDS011;30542;47.928;2.138;2023-10-08T11:44:01;3.22;;;1.90;;
44824;SDS011;30542;47.928;2.138;2023-10-08T11:49:06;4.65;;;1.77;;
44824;SDS011;30542;47.928;2.138;2023-10-08T11:54:07;4.53;;;1.73;;
44824;SDS011;30542;47.928;2.138;2023-10-08T11:59:11;6.03;;;1.95;;
44824;SDS011;30542;47.928;2.138;2023-10-08T12:04:12;5.77;;;2.00;;
44824;SDS011;30542;47.928;2.138;2023-10-08T12:09:15;7.22;;;2.50;;
44824;SDS011;30542;47.928;2.138;2023-10-08T12:14:16;7.00;;;1.75;;
44824;SDS011;30542;47.928;2.138;2023-10-08T12:19:16;8.65;;;1.80;;
44824;SDS011;30542;47.928;2.138;2023-10-08T12:24:16;5.63;;;1.70;;
44824;SDS011;30542;47.928;2.138;2023-10-08T12:29:17;9.00;;;1.83;;
44824;SDS011;30542;47.928;2.138;2023-10-08T12:34:18;6.93;;;2.03;;
44824;SDS011;30542;47.928;2.138;2023-10-08T12:39:19;6.15;;;1.60;;
44824;SDS011;30542;47.928;2.138;2023-10-08T12:44:25;8.43;;;1.83;;
44824;SDS011;30542;47.928;2.138;2023-10-08T12:49:27;9.70;;;2.05;;
44824;SDS011;30542;47.928;2.138;2023-10-08T12:54:33;6.18;;;1.50;;
44824;SDS011;30542;47.928;2.138;2023-10-08T12:59:45;9.77;;;2.25;;
44824;SDS011;30542;47.928;2.138;2023-10-08T13:04:51;10.02;;;2.10;;
44824;SDS011;30542;47.928;2.138;2023-10-08T13:09:54;17.23;;;2.60;;
44824;SDS011;30542;47.928;2.138;2023-10-08T13:14:55;11.73;;;2.63;;
44824;SDS011;30542;47.928;2.138;2023-10-08T13:19:55;13.10;;;2.67;;
44824;SDS011;30542;47.928;2.138;2023-10-08T13:24:55;8.35;;;2.28;;
44824;SDS011;30542;47.928;2.138;2023-10-08T13:29:56;8.53;;;1.93;;
44824;SDS011;30542;47.928;2.138;2023-10-08T13:34:56;13.95;;;2.75;;
44824;SDS011;30542;47.928;2.138;2023-10-08T13:39:57;11.50;;;2.45;;
44824;SDS011;30542;47.928;2.138;2023-10-08T13:44:58;13.45;;;2.05;;
44824;SDS011;30542;47.928;2.138;2023-10-08T13:49:59;7.38;;;2.00;;
44824;SDS011;30542;47.928;2.138;2023-10-08T13:54:59;6.90;;;2.13;;
44824;SDS011;30542;47.928;2.138;2023-10-08T14:00:00;12.30;;;2.23;;
44824;SDS011;30542;47.928;2.138;2023-10-08T14:05:01;5.80;;;2.03;;
44824;SDS011;30542;47.928;2.138;2023-10-08T14:10:08;8.80;;;1.90;;
44824;SDS011;30542;47.928;2.138;2023-10-08T14:15:17;12.68;;;2.70;;
44824;SDS011;30542;47.928;2.138;2023-10-08T14:20:17;8.48;;;1.77;;
44824;SDS011;30542;47.928;2.138;2023-10-08T14:25:21;11.55;;;2.35;;
44824;SDS011;30542;47.928;2.138;2023-10-08T14:30:24;11.23;;;1.98;;
44824;SDS011;30542;47.928;2.138;2023-10-08T14:35:25;11.70;;;2.53;;
44824;SDS011;30542;47.928;2.138;2023-10-08T14:40:44;5.68;;;1.70;;
44824;SDS011;30542;47.928;2.138;2023-10-08T14:46:03;8.70;;;2.40;;
44824;SDS011;30542;47.928;2.138;2023-10-08T14:51:09;5.93;;;1.98;;
44824;SDS011;30542;47.928;2.138;2023-10-08T14:56:16;11.35;;;2.55;;
44824;SDS011;30542;47.928;2.138;2023-10-08T15:01:18;6.25;;;2.00;;
44824;SDS011;30542;47.928;2.138;2023-10-08T15:06:19;8.00;;;1.88;;
44824;SDS011;30542;47.928;2.138;2023-10-08T15:11:20;6.47;;;2.25;;
44824;SDS011;30542;47.928;2.138;2023-10-08T15:16:21;7.90;;;2.70;;
44824;SDS011;30542;47.928;2.138;2023-10-08T15:21:26;10.55;;;2.28;;
44824;SDS011;30542;47.928;2.138;2023-10-08T15:26:26;7.93;;;2.25;;
44824;SDS011;30542;47.928;2.138;2023-10-08T15:31:26;5.63;;;2.33;;
44824;SDS011;30542;47.928;2.138;2023-10-08T15:36:27;12.52;;;1.92;;
44824;SDS011;30542;47.928;2.138;2023-10-08T15:41:27;9.87;;;2.03;;
44824;SDS011;30542;47.928;2.138;2023-10-08T15:46:27;16.37;;;2.93;;
44824;SDS011;30542;47.928;2.138;2023-10-08T15:51:31;14.97;;;2.13;;
44824;SDS011;30542;47.928;2.138;2023-10-08T15:56:31;14.57;;;2.70;;
44824;SDS011;30542;47.928;2.138;2023-10-08T16:01:32;11.90;;;2.20;;
44824;SDS011;30542;47.928;2.138;2023-10-08T16:06:32;9.70;;;2.30;;
44824;SDS011;30542;47.928;2.138;2023-10-08T16:11:33;6.10;;;2.22;;
44824;SDS011;30542;47.928;2.138;2023-10-08T16:16:34;15.65;;;3.42;;
44824;SDS011;30542;47.928;2.138;2023-10-08T16:21:36;11.93;;;3.05;;
44824;SDS011;30542;47.928;2.138;2023-10-08T16:26:41;7.07;;;2.60;;
44824;SDS011;30542;47.928;2.138;2023-10-08T16:31:42;8.63;;;2.70;;
44824;SDS011;30542;47.928;2.138;2023-10-08T16:36:43;12.13;;;3.13;;
44824;SDS011;30542;47.928;2.138;2023-10-08T16:41:47;14.68;;;3.05;;
44824;SDS011;30542;47.928;2.138;2023-10-08T16:46:48;14.25;;;3.42;;
44824;SDS011;30542;47.928;2.138;2023-10-08T16:51:49;8.80;;;2.67;;
44824;SDS011;30542;47.928;2.138;2023-10-08T16:56:55;13.95;;;3.13;;
44824;SDS011;30542;47.928;2.138;2023-10-08T17:01:59;8.70;;;2.47;;
44824;SDS011;30542;47.928;2.138;2023-10-08T17:07:00;16.25;;;4.13;;
44824;SDS011;30542;47.928;2.138;2023-10-08T17:12:01;9.35;;;2.92;;
44824;SDS011;30542;47.928;2.138;2023-10-08T17:17:01;13.45;;;2.70;;
44824;SDS011;30542;47.928;2.138;2023-10-08T17:22:04;7.88;;;2.72;;
44824;SDS011;30542;47.928;2.138;2023-10-08T17:27:04;8.10;;;2.10;;
44824;SDS011;30542;47.928;2.138;2023-10-08T17:32:06;19.52;;;11.57;;
44824;SDS011;30542;47.928;2.138;2023-10-08T17:37:07;38.33;;;21.77;;
44824;SDS011;30542;47.928;2.138;2023-10-08T17:42:07;35.60;;;24.27;;
44824;SDS011;30542;47.928;2.138;2023-10-08T17:47:09;31.65;;;20.90;;
44824;SDS011;30542;47.928;2.138;2023-10-08T17:52:10;27.47;;;18.07;;
44824;SDS011;30542;47.928;2.138;2023-10-08T17:57:12;25.63;;;14.43;;
44824;SDS011;30542;47.928;2.138;2023-10-08T18:02:15;25.67;;;13.25;;
44824;SDS011;30542;47.928;2.138;2023-10-08T18:07:17;22.48;;;12.00;;
44824;SDS011;30542;47.928;2.138;2023-10-08T18:12:17;14.40;;;9.18;;
44824;SDS011;30542;47.928;2.138;2023-10-08T18:17:18;15.57;;;9.03;;
44824;SDS011;30542;47.928;2.138;2023-10-08T18:22:18;14.33;;;7.63;;
44824;SDS011;30542;47.928;2.138;2023-10-08T18:27:19;16.40;;;8.73;;
44824;SDS011;30542;47.928;2.138;2023-10-08T18:32:20;16.42;;;7.78;;
44824;SDS011;30542;47.928;2.138;2023-10-08T18:37:22;16.33;;;6.90;;
44824;SDS011;30542;47.928;2.138;2023-10-08T18:42:23;15.77;;;7.77;;
44824;SDS011;30542;47.928;2.138;2023-10-08T18:47:27;14.65;;;6.65;;
44824;SDS011;30542;47.928;2.138;2023-10-08T18:52:27;11.93;;;6.53;;
44824;SDS011;30542;47.928;2.138;2023-10-08T18:57:28;16.63;;;6.53;;
44824;SDS011;30542;47.928;2.138;2023-10-08T19:02:28;12.97;;;5.80;;
44824;SDS011;30542;47.928;2.138;2023-10-08T19:07:29;16.97;;;6.37;;
44824;SDS011;30542;47.928;2.138;2023-10-08T19:12:30;14.37;;;5.83;;
44824;SDS011;30542;47.928;2.138;2023-10-08T19:17:31;10.52;;;5.63;;
44824;SDS011;30542;47.928;2.138;2023-10-08T19:22:32;11.80;;;5.72;;
44824;SDS011;30542;47.928;2.138;2023-10-08T19:27:33;14.67;;;5.80;;
44824;SDS011;30542;47.928;2.138;2023-10-08T19:32:33;12.85;;;4.95;;
44824;SDS011;30542;47.928;2.138;2023-10-08T19:37:34;15.45;;;4.57;;
44824;SDS011;30542;47.928;2.138;2023-10-08T19:42:36;9.93;;;4.93;;
44824;SDS011;30542;47.928;2.138;2023-10-08T19:47:39;12.43;;;4.50;;
44824;SDS011;30542;47.928;2.138;2023-10-08T19:52:43;9.18;;;4.63;;
44824;SDS011;30542;47.928;2.138;2023-10-08T19:57:44;16.08;;;4.53;;
44824;SDS011;30542;47.928;2.138;2023-10-08T20:02:44;10.63;;;4.37;;
44824;SDS011;30542;47.928;2.138;2023-10-08T20:07:45;11.55;;;5.32;;
44824;SDS011;30542;47.928;2.138;2023-10-08T20:12:47;10.50;;;3.92;;
44824;SDS011;30542;47.928;2.138;2023-10-08T20:17:49;7.93;;;4.28;;
44824;SDS011;30542;47.928;2.138;2023-10-08T20:22:52;7.03;;;3.72;;
44824;SDS011;30542;47.928;2.138;2023-10-08T20:27:54;6.57;;;3.22;;
44824;SDS011;30542;47.928;2.138;2023-10-08T20:32:55;9.45;;;3.42;;
44824;SDS011;30542;47.928;2.138;2023-10-08T20:37:56;9.75;;;4.18;;
44824;SDS011;30542;47.928;2.138;2023-10-08T20:42:57;10.93;;;3.72;;
44824;SDS011;30542;47.928;2.138;2023-10-08T20:47:58;5.60;;;3.17;;
44824;SDS011;30542;47.928;2.138;2023-10-08T20:53:01;8.57;;;3.80;;
44824;SDS011;30542;47.928;2.138;2023-10-08T20:58:02;6.43;;;3.17;;
44824;SDS011;30542;47.928;2.138;2023-10-08T21:03:04;6.20;;;3.22;;
44824;SDS011;30542;47.928;2.138;2023-10-08T21:08:06;6.38;;;2.78;;
44824;SDS011;30542;47.928;2.138;2023-10-08T21:13:08;8.57;;;3.47;;
44824;SDS011;30542;47.928;2.138;2023-10-08T21:18:09;5.32;;;2.78;;
44824;SDS011;30542;47.928;2.138;2023-10-08T21:23:10;8.10;;;3.33;;
44824;SDS011;30542;47.928;2.138;2023-10-08T21:28:10;5.27;;;2.63;;
44824;SDS011;30542;47.928;2.138;2023-10-08T21:33:11;5.53;;;2.73;;
44824;SDS011;30542;47.928;2.138;2023-10-08T21:38:11;6.05;;;2.40;;
44824;SDS011;30542;47.928;2.138;2023-10-08T21:43:12;5.87;;;3.20;;
44824;SDS011;30542;47.928;2.138;2023-10-08T21:48:12;4.88;;;2.22;;
44824;SDS011;30542;47.928;2.138;2023-10-08T21:53:13;7.03;;;2.87;;
44824;SDS011;30542;47.928;2.138;2023-10-08T21:58:14;4.30;;;2.63;;
44824;SDS011;30542;47.928;2.138;2023-10-08T22:03:14;5.03;;;2.17;;
44824;SDS011;30542;47.928;2.138;2023-10-08T22:08:14;4.45;;;2.22;;
44824;SDS011;30542;47.928;2.138;2023-10-08T22:13:15;7.32;;;2.38;;
44824;SDS011;30542;47.928;2.138;2023-10-08T22:18:17;4.53;;;2.58;;
44824;SDS011;30542;47.928;2.138;2023-10-08T22:23:32;5.53;;;2.28;;
44824;SDS011;30542;47.928;2.138;2023-10-08T22:28:38;5.40;;;2.13;;
44824;SDS011;30542;47.928;2.138;2023-10-08T22:33:42;5.20;;;2.20;;
44824;SDS011;30542;47.928;2.138;2023-10-08T22:38:48;3.45;;;1.98;;
44824;SDS011;30542;47.928;2.138;2023-10-08T22:43:49;4.63;;;1.80;;
44824;SDS011;30542;47.928;2.138;2023-10-08T22:48:53;3.90;;;1.98;;
44824;SDS011;30542;47.928;2.138;2023-10-08T22:54:03;4.43;;;1.52;;
44824;SDS011;30542;47.928;2.138;2023-10-08T22:59:04;3.08;;;1.70;;
44824;SDS011;30542;47.928;2.138;2023-10-08T23:04:07;3.17;;;1.45;;
44824;SDS011;30542;47.928;2.138;2023-10-08T23:09:09;3.40;;;1.60;;
44824;SDS011;30542;47.928;2.138;2023-10-08T23:14:14;2.90;;;1.52;;
44824;SDS011;30542;47.928;2.138;2023-10-08T23:19:18;3.30;;;2.00;;
44824;SDS011;30542;47.928;2.138;2023-10-08T23:24:20;3.75;;;1.63;;
44824;SDS011;30542;47.928;2.138;2023-10-08T23:29:21;2.58;;;1.73;;
44824;SDS011;30542;47.928;2.138;2023-10-08T23:34:22;3.70;;;1.45;;
44824;SDS011;30542;47.928;2.138;2023-10-08T23:39:25;3.20;;;1.73;;
44824;SDS011;30542;47.928;2.138;2023-10-08T23:44:25;2.87;;;1.63;;
44824;SDS011;30542;47.928;2.138;2023-10-08T23:49:25;2.20;;;1.20;;
44824;SDS011;30542;47.928;2.138;2023-10-08T23:54:28;1.98;;;1.50;;
44824;SDS011;30542;47.928;2.138;2023-10-08T23:59:33;3.35;;;1.50;;
